Weather History for KMNM - November, 2014

Change the Weather History Date:

Sunday, November 16, 2014

  Actual Average Record
Temperature  
Mean Temperature 22 °F -  
Max Temperature 26 °F 43 °F 73 °F (1953)
Min Temperature 17 °F 27 °F 14 °F (1989)
Degree Days  
Heating Degree Days 44    
Moisture  
Dew Point 17 °F    
Average Humidity 78    
Maximum Humidity 93    
Minimum Humidity 63    
Precipitation  
Precipitation 0.00 in - - ()
Sea Level Pressure  
Sea Level Pressure 29.92 in    
Wind  
Wind Speed 7 mph (WSW)    
Max Wind Speed 14 mph    
Max Gust Speed 20 mph    
Visibility 9 miles    
Events      
Averages and records for this station are not official NWS values.
T = Trace of Precipitation, MM = Missing Value Source: NWS Daily Summary

Daily Weather History Graph

Daily Weather History Graph

Search for Another Location

Airport or City:

Trip Planner

Search our weather history database for the weather conditions in past years. The results will help you decide how hot, cold, wet, or windy it might be!

Date:

Astronomy

Nov. 16, 2014 Rise Set
Actual Time 6:49 AM CST 4:20 PM CST
Civil Twilight 6:17 AM CST 4:52 PM CST
Nautical Twilight 5:42 AM CST 5:27 PM CST
Astronomical Twilight 5:07 AM CST 6:02 PM CST
Moon 12:40 AM CST (11/16) 1:28 PM CST (11/16)
Length of Visible Light 10h 34m
Length of Day
9h 30m
Waning Crescent, 31% of the Moon is Illuminated
Nov 16
Waning Crescent
Nov 22
New
Nov 29
First Quarter
Dec 6
Full
Dec 14
Last Quarter

Hourly Weather History & Observations

Time (CST) Temp. Windchill Dew Point Humidity Pressure Visibility Wind Dir Wind Speed Gust Speed Precip Events Conditions
12:15 AM 21.2 °F 14.9 °F 17.6 °F 86% 30.13 in 3.0 mi WSW 4.6 mph - N/A   Overcast
12:35 AM 21.2 °F 14.9 °F 17.6 °F 86% 30.12 in 5.0 mi WSW 4.6 mph - N/A   Overcast
12:55 AM 21.2 °F 13.6 °F 17.6 °F 86% 30.11 in 4.0 mi WSW 5.8 mph - N/A   Overcast
1:15 AM 19.4 °F 10.4 °F 15.8 °F 86% 30.10 in 5.0 mi WSW 6.9 mph - N/A   Overcast
1:35 AM 21.2 °F 14.9 °F 17.6 °F 86% 30.11 in 5.0 mi WSW 4.6 mph - N/A   Overcast
1:55 AM 19.4 °F 11.5 °F 17.6 °F 93% 30.08 in 2.5 mi WSW 5.8 mph - N/A   Overcast
2:15 AM 19.4 °F 14.3 °F 17.6 °F 93% 30.09 in 5.0 mi WSW 3.5 mph - N/A   Overcast
2:35 AM 19.4 °F 14.3 °F 17.6 °F 93% 30.08 in 10.0 mi WSW 3.5 mph - N/A   Mostly Cloudy
2:55 AM 19.4 °F 12.8 °F 15.8 °F 86% 30.08 in 10.0 mi WSW 4.6 mph - N/A   Mostly Cloudy
3:15 AM 19.4 °F 11.5 °F 17.6 °F 93% 30.07 in 9.0 mi WSW 5.8 mph - N/A   Overcast
3:35 AM 19.4 °F 12.8 °F 17.6 °F 93% 30.04 in 5.0 mi SW 4.6 mph - N/A   Overcast
3:55 AM 19.4 °F 14.3 °F 17.6 °F 93% 30.03 in 8.0 mi WSW 3.5 mph - N/A   Overcast
4:15 AM 19.4 °F 11.5 °F 15.8 °F 86% 30.03 in 10.0 mi WSW 5.8 mph - N/A   Mostly Cloudy
4:35 AM 19.4 °F 10.4 °F 15.8 °F 86% 30.03 in 10.0 mi SW 6.9 mph - N/A   Mostly Cloudy
4:55 AM 19.4 °F 11.5 °F 17.6 °F 93% 30.02 in 10.0 mi WSW 5.8 mph - N/A   Mostly Cloudy
5:15 AM 19.4 °F 9.5 °F 17.6 °F 93% 30.02 in 5.0 mi WSW 8.1 mph - N/A   Overcast
5:35 AM 19.4 °F 11.5 °F 15.8 °F 86% 30.01 in 7.0 mi WSW 5.8 mph - N/A   Overcast
5:55 AM 19.4 °F 11.5 °F 15.8 °F 86% 30.01 in 10.0 mi WSW 5.8 mph - N/A   Overcast
6:15 AM 19.4 °F 11.5 °F 15.8 °F 86% 30.00 in 10.0 mi SW 5.8 mph - N/A   Overcast
6:35 AM 19.4 °F 12.8 °F 15.8 °F 86% 30.00 in 9.0 mi WSW 4.6 mph - N/A   Scattered Clouds
6:55 AM 17.6 °F 9.3 °F 15.8 °F 93% 30.00 in 8.0 mi WSW 5.8 mph - N/A   Clear
7:15 AM 19.4 °F 10.4 °F 15.8 °F 86% 30.01 in 8.0 mi WSW 6.9 mph - N/A   Clear
7:35 AM 19.4 °F 10.4 °F 15.8 °F 86% 30.01 in 8.0 mi WSW 6.9 mph - N/A   Clear
7:55 AM 19.4 °F 11.5 °F 15.8 °F 86% 30.00 in 8.0 mi West 5.8 mph - N/A   Scattered Clouds
8:15 AM 19.4 °F 9.5 °F 15.8 °F 86% 30.00 in 9.0 mi West 8.1 mph - N/A   Mostly Cloudy
8:35 AM 21.2 °F 12.6 °F 17.6 °F 86% 29.99 in 5.0 mi WSW 6.9 mph - N/A   Overcast
8:55 AM 21.2 °F 12.6 °F 17.6 °F 86% 29.98 in 6.0 mi WSW 6.9 mph - N/A   Overcast
9:15 AM 21.2 °F 13.6 °F 17.6 °F 86% 29.97 in 8.0 mi WSW 5.8 mph - N/A   Mostly Cloudy
9:35 AM 23.0 °F 13.9 °F 17.6 °F 80% 29.97 in 9.0 mi WSW 8.1 mph - N/A   Partly Cloudy
9:55 AM 24.8 °F 16.9 °F 17.6 °F 74% 29.96 in 9.0 mi West 6.9 mph - N/A   Clear
10:15 AM 24.8 °F 16.9 °F 17.6 °F 74% 29.95 in 10.0 mi WSW 6.9 mph - N/A   Clear
10:35 AM 24.8 °F 14.6 °F 17.6 °F 74% 29.95 in 10.0 mi SW 10.4 mph - N/A   Partly Cloudy
10:55 AM 24.8 °F 15.3 °F 17.6 °F 74% 29.93 in 10.0 mi WSW 9.2 mph - N/A   Partly Cloudy
11:15 AM 26.6 °F 16.2 °F 19.4 °F 74% 29.92 in 10.0 mi WSW 11.5 mph 19.6 mph N/A   Partly Cloudy
11:35 AM 26.6 °F 18.2 °F 17.6 °F 69% 29.91 in 10.0 mi WSW 8.1 mph - N/A   Scattered Clouds
11:55 AM 26.6 °F 16.8 °F 17.6 °F 69% 29.90 in 10.0 mi WSW 10.4 mph 16.1 mph N/A   Mostly Cloudy
12:15 PM 26.6 °F 16.8 °F 17.6 °F 69% 29.88 in 10.0 mi WSW 10.4 mph - N/A   Mostly Cloudy
12:35 PM 26.6 °F 17.5 °F 17.6 °F 69% 29.88 in 10.0 mi West 9.2 mph - N/A   Mostly Cloudy
12:55 PM 26.6 °F 18.2 °F 19.4 °F 74% 29.88 in 10.0 mi WSW 8.1 mph - N/A   Overcast
1:15 PM 26.6 °F 15.7 °F 17.6 °F 69% 29.87 in 10.0 mi WSW 12.7 mph 17.3 mph N/A   Overcast
1:35 PM 26.6 °F 18.2 °F 17.6 °F 69% 29.87 in 10.0 mi WSW 8.1 mph 16.1 mph N/A   Overcast
1:55 PM 26.6 °F 16.8 °F 17.6 °F 69% 29.86 in 10.0 mi WSW 10.4 mph 17.3 mph N/A   Overcast
2:15 PM 26.6 °F 17.5 °F 17.6 °F 69% 29.86 in 10.0 mi WSW 9.2 mph - N/A   Overcast
2:35 PM 26.6 °F 15.2 °F 19.4 °F 74% 29.85 in 10.0 mi SW 13.8 mph 17.3 mph N/A   Overcast
2:55 PM 26.6 °F 17.5 °F 17.6 °F 69% 29.84 in 10.0 mi WSW 9.2 mph 17.3 mph N/A   Overcast
3:15 PM 26.6 °F 16.8 °F 17.6 °F 69% 29.85 in 10.0 mi SW 10.4 mph 16.1 mph N/A   Overcast
3:35 PM 26.6 °F 17.5 °F 17.6 °F 69% 29.84 in 10.0 mi SW 9.2 mph 17.3 mph N/A   Overcast
3:55 PM 26.6 °F 16.8 °F 17.6 °F 69% 29.84 in 10.0 mi SW 10.4 mph - N/A   Overcast
4:15 PM 26.6 °F 16.2 °F 19.4 °F 74% 29.84 in 10.0 mi WSW 11.5 mph - N/A   Overcast
4:35 PM 26.6 °F 16.8 °F 19.4 °F 74% 29.84 in 10.0 mi WSW 10.4 mph 18.4 mph N/A   Overcast
4:55 PM 26.6 °F 17.5 °F 17.6 °F 69% 29.84 in 10.0 mi SW 9.2 mph 17.3 mph N/A   Overcast
5:15 PM 26.6 °F 17.5 °F 17.6 °F 69% 29.84 in 10.0 mi SW 9.2 mph 16.1 mph N/A   Overcast
5:35 PM 26.6 °F 17.5 °F 17.6 °F 69% 29.84 in 10.0 mi SW 9.2 mph - N/A   Overcast
5:55 PM 26.6 °F 18.2 °F 17.6 °F 69% 29.83 in 10.0 mi SW 8.1 mph - N/A   Overcast
6:15 PM 26.6 °F 18.2 °F 17.6 °F 69% 29.83 in 10.0 mi SW 8.1 mph - N/A   Overcast
6:35 PM 26.6 °F 17.5 °F 19.4 °F 74% 29.82 in 10.0 mi SW 9.2 mph - N/A   Overcast
6:55 PM 24.8 °F 14.0 °F 17.6 °F 74% 29.82 in 10.0 mi SW 11.5 mph - N/A   Overcast
7:15 PM 24.8 °F 15.3 °F 17.6 °F 74% 29.80 in 10.0 mi SW 9.2 mph - N/A   Mostly Cloudy
7:35 PM 24.8 °F 14.0 °F 17.6 °F 74% 29.79 in 10.0 mi SW 11.5 mph - N/A   Partly Cloudy
7:55 PM 24.8 °F 16.9 °F 17.6 °F 74% 29.79 in 10.0 mi WSW 6.9 mph - N/A   Partly Cloudy
8:15 PM 24.8 °F 17.9 °F 17.6 °F 74% 29.78 in 10.0 mi WSW 5.8 mph - N/A   Partly Cloudy
8:35 PM 23.0 °F 15.8 °F 15.8 °F 74% 29.78 in 10.0 mi WSW 5.8 mph - N/A   Clear
8:55 PM 23.0 °F 14.7 °F 15.8 °F 74% 29.78 in 10.0 mi SW 6.9 mph - N/A   Partly Cloudy
9:15 PM 23.0 °F 13.9 °F 15.8 °F 74% 29.77 in 10.0 mi SW 8.1 mph - N/A   Partly Cloudy
9:35 PM 23.0 °F 13.1 °F 15.8 °F 74% 29.77 in 10.0 mi WSW 9.2 mph 17.3 mph N/A   Scattered Clouds
9:55 PM 21.2 °F 12.6 °F 14.0 °F 74% 29.76 in 10.0 mi WSW 6.9 mph - N/A   Partly Cloudy
10:15 PM 21.2 °F 12.6 °F 14.0 °F 74% 29.76 in 10.0 mi WSW 6.9 mph - N/A   Clear
10:35 PM 21.2 °F 12.6 °F 12.2 °F 68% 29.75 in 10.0 mi WSW 6.9 mph - N/A   Clear
10:55 PM 21.2 °F 12.6 °F 12.2 °F 68% 29.75 in 10.0 mi WSW 6.9 mph 19.6 mph N/A   Clear
11:15 PM 19.4 °F 10.4 °F 12.2 °F 74% 29.75 in 10.0 mi West 6.9 mph - N/A   Scattered Clouds
11:35 PM 19.4 °F 9.5 °F 8.6 °F 63% 29.75 in 10.0 mi WSW 8.1 mph 17.3 mph N/A   Overcast
11:55 PM 19.4 °F 8.6 °F 8.6 °F 63% 29.75 in 10.0 mi West 9.2 mph 16.1 mph N/A   Overcast